createdAt,value
2023-01-28T09:44:05.796Z,21.00
2023-01-28T09:54:14.043Z,23.80
2023-01-28T10:04:23.427Z,23.50
2023-01-28T10:24:39.082Z,23.50
2023-01-28T10:34:46.135Z,26.80
2023-01-28T10:44:54.472Z,26.30
2023-01-28T10:55:02.474Z,25.40
2023-01-28T11:05:08.457Z,20.10
2023-01-28T11:15:20.740Z,18.40
2023-01-28T11:25:27.811Z,21.70
2023-01-28T11:35:35.023Z,22.30
2023-01-28T11:45:45.335Z,24.50
2023-01-28T11:55:54.777Z,25.10
2023-01-28T12:06:12.800Z,26.60
2023-01-28T12:16:38.633Z,19.70
2023-01-28T12:26:44.467Z,20.00
2023-01-28T12:36:51.416Z,22.10
2023-01-28T12:46:59.880Z,23.60
2023-01-28T12:57:10.120Z,18.00
2023-01-28T13:07:23.195Z,23.20
2023-01-28T13:17:31.893Z,20.50
2023-01-28T13:27:39.150Z,30.50
2023-01-28T13:37:48.684Z,32.70
2023-01-28T13:48:01.530Z,32.00
2023-01-28T13:58:38.100Z,27.90
2023-01-28T14:08:59.414Z,31.80
2023-01-28T14:19:11.231Z,25.60
2023-01-28T14:29:19.162Z,25.00
2023-01-28T14:39:28.110Z,26.40
2023-01-28T14:49:39.433Z,33.30
2023-01-28T14:59:47.377Z,35.20
2023-01-28T15:10:01.743Z,34.30
2023-01-28T15:20:11.318Z,30.10
2023-01-28T15:40:32.958Z,17.70
2023-01-28T15:50:41.610Z,20.40
2023-01-28T16:00:49.499Z,22.80
2023-01-28T16:10:57.972Z,25.40
2023-01-28T16:21:10.001Z,24.20
2023-01-28T16:31:18.201Z,22.30
2023-01-28T16:41:23.334Z,21.10
2023-01-28T16:51:30.908Z,20.50
2023-01-28T17:01:38.089Z,24.70
2023-01-28T17:11:45.746Z,19.00
2023-01-28T17:21:53.087Z,26.90
2023-01-28T17:31:59.549Z,39.20
2023-01-28T17:42:06.042Z,29.10
2023-01-28T17:52:13.303Z,26.50
2023-01-28T18:02:20.431Z,21.70
2023-01-28T18:12:27.736Z,20.90
2023-01-28T18:22:35.280Z,19.10
2023-01-28T18:32:42.345Z,21.60
2023-01-28T18:42:48.493Z,21.60
2023-01-28T18:52:56.618Z,21.70
2023-01-28T19:03:02.521Z,19.20
2023-01-28T19:13:09.994Z,19.90
2023-01-28T19:23:17.559Z,15.00
2023-01-28T19:33:24.581Z,26.20
2023-01-28T19:43:31.664Z,22.70
2023-01-28T19:53:38.436Z,15.30
2023-01-28T20:03:45.955Z,13.90
2023-01-28T20:13:56.880Z,10.00
2023-01-28T20:24:06.725Z,16.70
2023-01-28T20:34:12.992Z,19.50
2023-01-28T20:44:20.836Z,24.20
2023-01-28T20:54:28.664Z,25.00
2023-01-28T21:04:36.246Z,18.30
2023-01-28T21:14:43.292Z,15.60
2023-01-28T21:24:51.487Z,21.00
2023-01-28T21:34:58.685Z,17.90
2023-01-28T21:45:06.605Z,25.70
2023-01-28T21:55:12.718Z,18.60
2023-01-28T22:05:17.631Z,10.80
2023-01-28T22:15:23.630Z,11.00
2023-01-28T22:25:30.641Z,9.40
2023-01-28T22:35:37.874Z,13.70
2023-01-28T22:45:45.086Z,17.40
2023-01-28T22:55:51.919Z,14.00
2023-01-28T23:05:59.026Z,20.50
2023-01-28T23:16:24.403Z,17.80
2023-01-28T23:26:32.702Z,17.80
2023-01-28T23:36:40.041Z,13.30
2023-01-28T23:46:47.232Z,9.20
2023-01-28T23:56:55.057Z,9.20
